This is the latest recevied weather packets stored in our database for station/object DL9LA-13. If no packets are shown the sender has not sent any weather packets the latest 1 day(s).
| Time | Temp. | Humidity | Pressure | Rain* | Wind** | Luminosity | Snow |
|---|---|---|---|---|---|---|---|
| 1777753978 | 17.22° C | 35% | 973 hPa | - | - | - | - |
| 1777753374 | 17.78° C | 36% | 973 hPa | - | - | - | - |
| 1777752770 | 17.78° C | 35% | 973 hPa | - | - | - | - |
| 1777752167 | 18.33° C | 35% | 973 hPa | - | - | - | - |
| 1777750959 | 18.33° C | 35% | 973 hPa | - | - | - | - |
| 1777749752 | 19.44° C | 35% | 973 hPa | - | - | - | - |
| 1777749148 | 20° C | 33% | 973 hPa | - | - | - | - |
| 1777746734 | 21.11° C | 30% | 972 hPa | - | - | - | - |
| 1777744923 | 22.78° C | 28% | 972 hPa | - | - | - | - |
| 1777744319 | 22.78° C | 28% | 972 hPa | - | - | - | - |
| 1777738283 | 26.11° C | 21% | 973 hPa | - | - | - | - |
| 1777729832 | 26.67° C | 23% | 974 hPa | - | - | - | - |
| 1777729229 | 26.11° C | 23% | 975 hPa | - | - | - | - |
| 1777726814 | 25.56° C | 24% | 975 hPa | - | - | - | - |
| 1777721985 | 23.33° C | 29% | 976 hPa | - | - | - | - |
| 1777719570 | 22.78° C | 31% | 977 hPa | - | - | - | - |
| 1777714741 | 21.67° C | 33% | 978 hPa | - | - | - | - |
| 1777712326 | 20.56° C | 36% | 978 hPa | - | - | - | - |
| 1777711119 | 19.44° C | 39% | 978 hPa | - | - | - | - |
| 1777710515 | 19.44° C | 42% | 978 hPa | - | - | - | - |
| 1777709912 | 18.89° C | 44% | 978 hPa | - | - | - | - |
| 1777708704 | 18.33° C | 46% | 979 hPa | - | - | - | - |
| 1777707497 | 17.78° C | 47% | 979 hPa | - | - | - | - |
| 1777706894 | 17.78° C | 47% | 979 hPa | - | - | - | - |
* Rain since midnight (hover to see other rain measurements)
** Current wind speed in m/s (hover to see current wind gust speed)